Time;durP1;ratioP1;P1;durP2;ratioP2;P2;SDS_P1;SDS_P2;PMS_P1;PMS_P2;Temp;Humidity;BMP_temperature;BMP_pressure;BME280_temperature;BME280_humidity;BME280_pressure;Samples;Min_cycle;Max_cycle;Signal;HPM_P1;HPM_P2
2022/04/19 00:00:06;;;;;;;;;;;;;;;22.21;37.70;94650.69;2052785;28;1981;-68
2022/04/19 00:01:10;;;;;;;;;;;;;;;22.22;37.84;94654.97;2058283;28;1105;-68
2022/04/19 00:02:12;;;;;;;;;;;;;;;22.21;37.82;94651.50;2066165;28;1496;-68
2022/04/19 00:03:14;;;;;;;;;;;;;;;22.20;37.45;94649.88;2057252;28;1480;-67
2022/04/19 00:04:18;;;;;;;;;;;;;;;22.21;37.54;94648.00;2058212;28;1659;-69
2022/04/19 00:05:20;;;;;;;;;;;;;;;22.21;37.52;94648.81;2073048;28;1518;-68
2022/04/19 00:06:22;;;;;;;;;;;;;;;22.21;37.72;94645.31;2073920;28;1631;-68
2022/04/19 00:07:23;;;;;;;;;;;;;;;22.21;37.79;94645.31;2063724;28;1514;-67
2022/04/19 00:08:25;;;;;;;;;;;;;;;22.20;37.73;94646.38;2061615;28;1479;-67
2022/04/19 00:09:26;;;;;;;;;;;;;;;22.19;37.85;94642.06;2063843;28;1665;-67
2022/04/19 00:10:28;;;;;;;;;;;;;;;22.20;37.67;94647.19;2054464;28;1473;-68
2022/04/19 00:11:30;;;;;;;;;;;;;;;22.22;37.63;94647.75;2061809;28;1103;-67
2022/04/19 00:12:32;;;;;;;;;;;;;;;22.24;37.76;94644.88;2057699;28;1181;-67
2022/04/19 00:13:33;;;;;;;;;;;;;;;22.21;37.90;94639.97;2058040;28;1383;-67
2022/04/19 00:14:35;;;;;;;;;;;;;;;22.22;37.88;94639.72;2058245;28;1538;-67
2022/04/19 00:15:38;;;;;;;;;;;;;;;22.21;37.82;94637.31;2065917;28;1169;-67
2022/04/19 00:16:40;;;;;;;;;;;;;;;22.19;37.88;94634.03;2058079;28;1065;-67
2022/04/19 00:17:42;;;;;;;;;;;;;;;22.19;38.04;94632.16;2057392;28;1445;-67
2022/04/19 00:18:44;;;;;;;;;;;;;;;22.19;37.99;94631.34;2066383;28;1152;-67
2022/04/19 00:19:46;;;;;;;;;;;;;;;22.22;37.78;94638.91;2072857;28;1906;-67
2022/04/19 00:20:49;;;;;;;;;;;;;;;22.20;37.81;94636.50;2058171;28;1562;-67
2022/04/19 00:21:50;;;;;;;;;;;;;;;22.21;37.92;94637.31;2053169;28;1506;-67
2022/04/19 00:22:52;;;;;;;;;;;;;;;22.21;37.86;94630.06;2061691;28;1121;-67
2022/04/19 00:23:54;;;;;;;;;;;;;;;22.23;37.97;94629.88;2066811;28;924;-67
2022/04/19 00:24:56;;;;;;;;;;;;;;;22.19;37.83;94634.03;2066444;28;1636;-67
2022/04/19 00:25:57;;;;;;;;;;;;;;;22.24;37.76;94634.16;2066328;28;1451;-67
2022/04/19 00:26:59;;;;;;;;;;;;;;;22.22;37.90;94631.69;2057593;28;1498;-67
2022/04/19 00:28:01;;;;;;;;;;;;;;;22.23;37.91;94638.69;2058123;28;1049;-67
2022/04/19 00:29:02;;;;;;;;;;;;;;;22.21;37.77;94627.41;2065573;28;1540;-67
2022/04/19 00:30:04;;;;;;;;;;;;;;;22.21;38.02;94623.91;2066461;28;1026;-66
2022/04/19 00:31:06;;;;;;;;;;;;;;;22.23;37.86;94627.19;2066087;28;1519;-67
2022/04/19 00:32:11;;;;;;;;;;;;;;;22.22;38.13;94625.53;2057383;28;1819;-67
2022/04/19 00:33:13;;;;;;;;;;;;;;;22.25;37.89;94619.72;2053777;28;1437;-67
2022/04/19 00:34:16;;;;;;;;;;;;;;;22.24;37.70;94618.09;2061816;28;1516;-67
2022/04/19 00:35:17;;;;;;;;;;;;;;;22.24;37.96;94623.44;2057855;28;1716;-67
2022/04/19 00:36:21;;;;;;;;;;;;;;;22.23;38.06;94617.28;2057655;28;982;-70
2022/04/19 00:37:23;;;;;;;;;;;;;;;22.20;37.96;94614.28;2064485;28;1560;-70
2022/04/19 00:38:25;;;;;;;;;;;;;;;22.20;38.04;94620.44;2065830;28;1157;-69
2022/04/19 00:39:27;;;;;;;;;;;;;;;22.19;38.18;94621.47;2056507;28;1513;-69
2022/04/19 00:40:28;;;;;;;;;;;;;;;22.23;38.07;94627.19;2057747;28;1985;-69
2022/04/19 00:41:30;;;;;;;;;;;;;;;22.19;38.58;94624.13;2074534;28;1078;-69
2022/04/19 00:42:32;;;;;;;;;;;;;;;22.22;38.26;94614.84;2074429;28;1161;-68
2022/04/19 00:43:34;;;;;;;;;;;;;;;22.22;38.36;94620.19;2073073;28;1675;-68
2022/04/19 00:44:39;;;;;;;;;;;;;;;22.24;38.39;94612.75;2063181;28;1541;-66
2022/04/19 00:45:40;;;;;;;;;;;;;;;22.24;38.34;94610.06;2061029;28;1127;-67
2022/04/19 00:46:42;;;;;;;;;;;;;;;22.22;38.22;94610.28;2065662;28;1451;-67
2022/04/19 00:47:45;;;;;;;;;;;;;;;22.19;38.24;94610.75;2057598;28;1670;-68
2022/04/19 00:48:46;;;;;;;;;;;;;;;22.20;38.14;94611.59;2058190;28;1101;-68
2022/04/19 00:49:48;;;;;;;;;;;;;;;22.23;38.28;94606.59;2063834;28;1540;-68
2022/04/19 00:50:50;;;;;;;;;;;;;;;22.21;38.54;94611.34;2066296;28;1109;-66
2022/04/19 00:51:56;;;;;;;;;;;;;;;22.19;38.40;94610.75;2064973;28;1454;-67
2022/04/19 00:52:57;;;;;;;;;;;;;;;22.22;38.47;94601.44;2066229;28;1758;-66
2022/04/19 00:53:59;;;;;;;;;;;;;;;22.20;38.57;94603.56;2066899;28;1407;-67
2022/04/19 00:55:02;;;;;;;;;;;;;;;22.22;38.53;94604.13;2057572;28;1914;-67
2022/04/19 00:56:04;;;;;;;;;;;;;;;22.23;38.29;94597.75;2058005;28;1578;-67
2022/04/19 00:57:06;;;;;;;;;;;;;;;22.22;38.39;94604.13;2063839;28;1667;-66
2022/04/19 00:58:07;;;;;;;;;;;;;;;22.22;38.63;94601.44;2066486;28;1670;-66
2022/04/19 00:59:10;;;;;;;;;;;;;;;22.23;38.53;94603.09;2066858;28;1784;-66
2022/04/19 01:00:12;;;;;;;;;;;;;;;22.24;38.32;94607.41;2057235;28;1903;-66
2022/04/19 01:01:15;;;;;;;;;;;;;;;22.23;38.36;94606.59;2057214;28;1573;-67
2022/04/19 01:02:17;;;;;;;;;;;;;;;22.22;38.47;94604.13;2065939;28;1516;-67
2022/04/19 01:03:21;;;;;;;;;;;;;;;22.24;38.20;94612.75;2068067;28;1866;-67
2022/04/19 01:04:23;;;;;;;;;;;;;;;22.22;38.60;94604.13;2066067;28;1037;-67
2022/04/19 01:05:24;;;;;;;;;;;;;;;22.24;38.24;94608.19;2066318;28;905;-67
2022/04/19 01:06:26;;;;;;;;;;;;;;;22.26;38.32;94605.31;2065205;28;995;-67
2022/04/19 01:07:28;;;;;;;;;;;;;;;22.26;38.52;94610.66;2061624;28;1603;-67
2022/04/19 01:08:30;;;;;;;;;;;;;;;22.25;38.66;94598.31;2061125;28;1829;-67
2022/04/19 01:09:32;;;;;;;;;;;;;;;22.23;38.43;94601.22;2057522;28;1768;-67
2022/04/19 01:10:34;;;;;;;;;;;;;;;22.25;38.55;94603.66;2054310;28;1554;-69
2022/04/19 01:14:18;;;;;;;;;;;;;;;22.24;38.38;94597.50;2065842;28;1185;-68
2022/04/19 01:15:19;;;;;;;;;;;;;;;22.27;38.26;94591.69;2066120;28;1141;-68
2022/04/19 01:16:21;;;;;;;;;;;;;;;22.28;38.63;94595.16;2065988;28;1177;-68
2022/04/19 01:17:25;;;;;;;;;;;;;;;22.24;38.80;94592.16;2066095;28;1722;-66
2022/04/19 01:18:29;;;;;;;;;;;;;;;22.25;38.57;94596.47;2053233;28;1537;-66
2022/04/19 01:19:31;;;;;;;;;;;;;;;22.26;38.50;94594.59;2057110;28;1504;-66
2022/04/19 01:20:34;;;;;;;;;;;;;;;22.25;38.67;94590.28;2073785;28;1979;-66
2022/04/19 01:21:48;;;;;;;;;;;;;;;22.21;38.60;94595.28;2073351;28;1720;-66
2022/04/19 01:22:50;;;;;;;;;;;;;;;22.24;38.77;94599.38;2059058;28;1693;-67
2022/04/19 01:23:52;;;;;;;;;;;;;;;22.25;39.01;94599.16;2065397;28;1097;-66
2022/04/19 01:24:53;;;;;;;;;;;;;;;22.25;38.76;94604.50;2065983;28;1806;-66
2022/04/19 01:25:57;;;;;;;;;;;;;;;22.24;39.05;94608.19;2066136;28;1014;-66
2022/04/19 01:26:58;;;;;;;;;;;;;;;22.22;38.90;94604.13;2066961;28;1510;-66
2022/04/19 01:28:00;;;;;;;;;;;;;;;22.22;38.81;94596.09;2062470;28;2033;-66
2022/04/19 01:29:01;;;;;;;;;;;;;;;22.21;38.93;94603.31;2056827;28;1003;-66
2022/04/19 01:30:08;;;;;;;;;;;;;;;22.21;38.96;94597.97;2053196;28;1093;-66
2022/04/19 01:31:11;;;;;;;;;;;;;;;22.24;39.05;94602.03;2061039;28;1338;-66
2022/04/19 01:32:13;;;;;;;;;;;;;;;22.23;38.99;94605.78;2065520;28;1494;-66
2022/04/19 01:33:15;;;;;;;;;;;;;;;22.22;39.14;94607.63;2066073;28;1006;-66
2022/04/19 01:34:18;;;;;;;;;;;;;;;22.24;38.85;94604.72;2065271;28;1531;-66
2022/04/19 01:35:20;;;;;;;;;;;;;;;22.23;39.08;94600.44;2057030;28;1224;-67
2022/04/19 01:36:21;;;;;;;;;;;;;;;22.22;38.93;94598.78;2056870;28;1234;-67
2022/04/19 01:37:23;;;;;;;;;;;;;;;22.21;39.11;94597.16;2064049;28;1459;-66
2022/04/19 01:38:25;;;;;;;;;;;;;;;22.20;39.30;94592.88;2069495;28;1674;-71
2022/04/19 01:40:46;;;;;;;;;;;;;;;22.20;39.10;94591.00;2066796;28;1973;-68
2022/04/19 01:41:48;;;;;;;;;;;;;;;22.24;38.85;94589.47;2056666;28;1504;-67
2022/04/19 01:42:52;;;;;;;;;;;;;;;22.22;39.05;94588.06;2058040;28;1798;-67
2022/04/19 01:43:54;;;;;;;;;;;;;;;22.24;38.71;94591.34;2058178;28;1232;-68
2022/04/19 01:44:57;;;;;;;;;;;;;;;22.24;38.93;94589.47;2065381;28;1770;-68
2022/04/19 01:45:58;;;;;;;;;;;;;;;22.25;38.72;94592.97;2065932;28;1160;-68
2022/04/19 01:47:07;;;;;;;;;;;;;;;22.22;38.81;94591.56;2056305;28;1472;-69
2022/04/19 01:48:09;;;;;;;;;;;;;;;22.25;38.83;94598.31;2058400;28;1177;-69
2022/04/19 01:49:10;;;;;;;;;;;;;;;22.24;38.73;94589.47;2059768;28;1543;-68
2022/04/19 01:50:13;;;;;;;;;;;;;;;22.26;38.91;94592.75;2049242;28;1106;-68
2022/04/19 01:51:14;;;;;;;;;;;;;;;22.26;38.73;94594.59;2059445;28;1665;-68
2022/04/19 01:52:17;;;;;;;;;;;;;;;22.24;39.01;94596.69;2065952;28;1360;-65
2022/04/19 01:53:19;;;;;;;;;;;;;;;22.24;38.91;94594.81;2048088;28;1198;-64
2022/04/19 01:54:20;;;;;;;;;;;;;;;22.25;38.85;94599.16;2056515;28;1572;-64
2022/04/19 01:55:24;;;;;;;;;;;;;;;22.23;38.50;94585.19;2065864;28;1037;-63
2022/04/19 01:56:33;;;;;;;;;;;;;;;22.21;38.45;94586.44;2073137;28;2030;-62
2022/04/19 01:57:35;;;;;;;;;;;;;;;22.24;38.40;94596.69;2072989;28;1654;-62
2022/04/19 01:58:37;;;;;;;;;;;;;;;22.24;38.58;94592.16;2070978;28;1537;-62
2022/04/19 01:59:39;;;;;;;;;;;;;;;22.26;38.15;94591.94;2064823;28;1583;-61
2022/04/19 02:00:40;;;;;;;;;;;;;;;22.28;38.11;94587.13;2063897;28;1697;-62
2022/04/19 02:01:42;;;;;;;;;;;;;;;22.25;38.17;94592.97;2064748;28;1509;-62
2022/04/19 02:02:44;;;;;;;;;;;;;;;22.24;38.12;94596.69;2068297;28;1680;-62
2022/04/19 02:03:46;;;;;;;;;;;;;;;22.24;38.08;94591.34;2064301;28;1493;-61
2022/04/19 02:04:47;;;;;;;;;;;;;;;22.26;37.98;94591.94;2058981;28;1780;-62
2022/04/19 02:05:49;;;;;;;;;;;;;;;22.26;37.85;94589.25;2064010;28;1496;-63
2022/04/19 02:06:50;;;;;;;;;;;;;;;22.27;37.76;94590.88;2065178;28;1571;-62
2022/04/19 02:07:52;;;;;;;;;;;;;;;22.26;37.73;94591.94;2065645;28;1185;-62
2022/04/19 02:08:54;;;;;;;;;;;;;;;22.23;37.55;94587.84;2072791;28;1534;-62
2022/04/19 02:09:57;;;;;;;;;;;;;;;22.22;37.61;94590.75;2074020;28;1236;-63
2022/04/19 02:11:00;;;;;;;;;;;;;;;22.22;37.33;94593.41;2063465;28;2118;-62
2022/04/19 02:12:01;;;;;;;;;;;;;;;22.21;37.44;94592.63;2057648;28;1306;-62
2022/04/19 02:13:03;;;;;;;;;;;;;;;22.22;37.46;94594.22;2056523;28;1320;-62
2022/04/19 02:14:06;;;;;;;;;;;;;;;22.20;37.60;94591.00;2065430;28;1197;-62
2022/04/19 02:15:08;;;;;;;;;;;;;;;22.22;37.51;94582.72;2055040;28;1078;-62
2022/04/19 02:16:10;;;;;;;;;;;;;;;22.24;37.17;94585.97;2050338;28;2241;-62
2022/04/19 02:17:11;;;;;;;;;;;;;;;22.26;37.28;94590.06;2065581;28;1133;-62
2022/04/19 02:18:13;;;;;;;;;;;;;;;22.24;37.23;94586.78;2065784;28;1097;-62
2022/04/19 02:19:14;;;;;;;;;;;;;;;22.24;36.96;94591.34;2064610;28;1466;-62
2022/04/19 02:20:17;;;;;;;;;;;;;;;22.22;37.10;94590.75;2056338;28;1114;-62
2022/04/19 02:21:19;;;;;;;;;;;;;;;22.20;37.08;94587.50;2056784;28;1987;-63
2022/04/19 02:22:22;;;;;;;;;;;;;;;22.19;37.22;94586.66;2056817;28;1190;-62
2022/04/19 02:23:25;;;;;;;;;;;;;;;22.21;37.29;94586.44;2057491;28;1145;-63
2022/04/19 02:24:26;;;;;;;;;;;;;;;22.22;36.94;94590.75;2057204;28;1860;-63
2022/04/19 02:25:28;;;;;;;;;;;;;;;22.22;36.90;94582.72;2056777;28;1674;-62
2022/04/19 02:26:30;;;;;;;;;;;;;;;22.18;37.23;94582.38;2061373;28;1192;-62
2022/04/19 02:27:33;;;;;;;;;;;;;;;22.18;37.10;94587.72;2051727;28;1085;-62
2022/04/19 02:28:34;;;;;;;;;;;;;;;22.17;36.85;94585.28;2057433;28;1181;-67
2022/04/19 02:29:36;;;;;;;;;;;;;;;22.17;37.07;94580.75;2064668;28;1473;-65
2022/04/19 02:30:37;;;;;;;;;;;;;;;22.16;37.25;94595.16;2065633;28;1161;-65
2022/04/19 02:31:39;;;;;;;;;;;;;;;22.17;37.15;94585.28;2065454;28;1535;-65
2022/04/19 02:32:41;;;;;;;;;;;;;;;22.20;37.21;94595.53;2065595;28;1117;-65
2022/04/19 02:33:43;;;;;;;;;;;;;;;22.19;37.21;94585.84;2065674;28;1093;-65
2022/04/19 02:34:44;;;;;;;;;;;;;;;22.18;37.46;94590.41;2065054;28;1117;-65
2022/04/19 02:35:46;;;;;;;;;;;;;;;22.18;37.50;94587.72;2065632;28;1232;-65
2022/04/19 02:36:48;;;;;;;;;;;;;;;22.18;37.32;94589.59;2064159;28;1439;-67
2022/04/19 02:37:54;;;;;;;;;;;;;;;22.18;37.50;94592.28;2060780;28;1548;-67
2022/04/19 02:38:57;;;;;;;;;;;;;;;22.18;37.54;94592.28;2062657;28;1475;-67
2022/04/19 02:39:58;;;;;;;;;;;;;;;22.19;37.70;94591.22;2065631;28;1037;-65
2022/04/19 02:41:00;;;;;;;;;;;;;;;22.18;37.79;94587.72;2057908;28;1706;-65
2022/04/19 02:42:02;;;;;;;;;;;;;;;22.20;37.71;94585.66;2056781;28;1902;-65
2022/04/19 02:43:04;;;;;;;;;;;;;;;22.22;37.71;94596.91;2063344;28;1600;-66
2022/04/19 02:44:08;;;;;;;;;;;;;;;22.21;37.90;94589.13;2064987;28;1630;-65
2022/04/19 02:45:09;;;;;;;;;;;;;;;22.22;37.75;94593.41;2065638;28;1030;-67
2022/04/19 02:46:11;;;;;;;;;;;;;;;22.22;37.70;94590.75;2065609;28;1078;-66
2022/04/19 02:47:15;;;;;;;;;;;;;;;22.19;38.06;94584.00;2072138;28;1616;-65
2022/04/19 02:48:18;;;;;;;;;;;;;;;22.18;38.36;94589.59;2071888;28;1509;-66
2022/04/19 02:49:21;;;;;;;;;;;;;;;22.20;38.21;94584.84;2061957;28;1847;-67
2022/04/19 02:50:22;;;;;;;;;;;;;;;22.20;38.06;94591.00;2059786;28;1076;-66
2022/04/19 02:51:24;;;;;;;;;;;;;;;22.20;38.11;94593.66;2065076;28;1106;-65
2022/04/19 02:52:26;;;;;;;;;;;;;;;22.22;38.43;94593.41;2064026;28;1559;-66
2022/04/19 02:53:27;;;;;;;;;;;;;;;22.21;38.82;94589.13;2066759;28;1670;-65
2022/04/19 02:54:29;;;;;;;;;;;;;;;22.25;38.18;94592.97;2065725;28;1055;-65
2022/04/19 02:55:30;;;;;;;;;;;;;;;22.26;38.26;94594.59;2056954;28;1125;-65
2022/04/19 02:56:32;;;;;;;;;;;;;;;22.25;37.92;94598.31;2057259;28;1184;-66
2022/04/19 02:57:34;;;;;;;;;;;;;;;22.20;38.01;94592.88;2065432;28;1013;-65
2022/04/19 02:58:35;;;;;;;;;;;;;;;22.21;37.81;94597.97;2066017;28;1225;-66
2022/04/19 02:59:37;;;;;;;;;;;;;;;22.23;37.65;94595.06;2065858;28;1054;-65
2022/04/19 03:00:39;;;;;;;;;;;;;;;19.99;30.12;94601.06;2061623;28;1664;-66
2022/04/19 03:01:42;;;;;;;;;;;;;;;17.70;32.09;94603.06;2060165;28;1982;-67
2022/04/19 03:02:44;;;;;;;;;;;;;;;16.34;33.72;94608.28;2057127;28;1494;-67
2022/04/19 03:03:45;;;;;;;;;;;;;;;15.41;34.89;94602.25;2067633;28;1480;-66
2022/04/19 03:04:47;;;;;;;;;;;;;;;15.12;35.29;94609.28;2064570;28;1109;-67
2022/04/19 03:05:48;;;;;;;;;;;;;;;14.55;36.06;94611.81;2056590;28;1120;-67
2022/04/19 03:06:50;;;;;;;;;;;;;;;14.15;36.71;94611.28;2056455;28;1577;-67
2022/04/19 03:07:52;;;;;;;;;;;;;;;13.84;37.19;94617.50;2057837;28;998;-66
2022/04/19 03:08:53;;;;;;;;;;;;;;;13.76;36.83;94607.84;2048972;29;1160;-67
2022/04/19 03:09:55;;;;;;;;;;;;;;;13.28;37.48;94611.66;2054456;28;1711;-66
2022/04/19 03:10:58;;;;;;;;;;;;;;;13.26;37.90;94608.38;2056871;28;1180;-67
2022/04/19 03:12:00;;;;;;;;;;;;;;;13.17;38.14;94608.44;2044523;28;1065;-67
2022/04/19 03:13:02;;;;;;;;;;;;;;;13.20;37.73;94609.06;2049772;28;1691;-66
2022/04/19 03:14:07;;;;;;;;;;;;;;;13.08;38.03;94612.13;2070193;28;1668;-66
2022/04/19 03:15:11;;;;;;;;;;;;;;;12.84;38.24;94621.00;2068243;28;1585;-67
2022/04/19 03:16:14;;;;;;;;;;;;;;;12.75;38.47;94615.94;2065221;28;1023;-67
2022/04/19 03:17:16;;;;;;;;;;;;;;;12.84;38.28;94610.44;2043966;28;1414;-69
2022/04/19 03:18:17;;;;;;;;;;;;;;;12.66;38.61;94617.78;2050458;28;1477;-67
2022/04/19 03:19:19;;;;;;;;;;;;;;;12.33;39.20;94620.56;2068238;28;1164;-66
2022/04/19 03:20:20;;;;;;;;;;;;;;;12.23;39.28;94626.00;2058645;28;1518;-66
2022/04/19 03:21:22;;;;;;;;;;;;;;;12.22;39.14;94628.78;2057038;28;1524;-67
2022/04/19 03:22:24;;;;;;;;;;;;;;;12.20;39.14;94628.94;2062382;28;1907;-66
2022/04/19 03:27:41;;;;;;;;;;;;;;;11.69;40.75;94628.38;2065398;28;1009;-71
2022/04/19 03:28:45;;;;;;;;;;;;;;;11.78;40.27;94630.03;2056224;28;1433;-66
2022/04/19 03:29:47;;;;;;;;;;;;;;;11.76;40.21;94634.63;2057890;28;1007;-66
2022/04/19 03:30:48;;;;;;;;;;;;;;;11.80;39.93;94635.09;2066218;28;1188;-66
2022/04/19 03:31:50;;;;;;;;;;;;;;;11.72;39.95;94632.47;2066963;28;1168;-66
2022/04/19 03:32:53;;;;;;;;;;;;;;;11.56;40.17;94633.31;2066524;28;1138;-66
2022/04/19 03:33:54;;;;;;;;;;;;;;;11.62;40.07;94630.03;2066070;28;1451;-67
2022/04/19 03:34:56;;;;;;;;;;;;;;;11.49;40.23;94637.59;2061580;28;1453;-67
2022/04/19 03:35:58;;;;;;;;;;;;;;;11.46;40.37;94630.84;2062924;28;1082;-67
2022/04/19 03:36:59;;;;;;;;;;;;;;;11.60;41.65;94632.81;2058260;28;1118;-65
2022/04/19 03:38:01;;;;;;;;;;;;;;;12.84;40.27;94628.91;2058522;28;1066;-71
2022/04/19 03:39:03;;;;;;;;;;;;;;;14.10;38.11;94626.84;2062159;28;1659;-66
2022/04/19 03:40:06;;;;;;;;;;;;;;;15.08;38.49;94631.00;2061830;28;1513;-64
2022/04/19 03:41:07;;;;;;;;;;;;;;;15.85;37.77;94625.06;2066389;28;1506;-65
2022/04/19 03:42:09;;;;;;;;;;;;;;;16.39;36.93;94626.25;2066517;28;1906;-66
2022/04/19 03:43:11;;;;;;;;;;;;;;;16.77;36.13;94629.34;2052819;28;1478;-63
2022/04/19 03:44:12;;;;;;;;;;;;;;;17.06;35.65;94627.44;2053531;28;1589;-63
2022/04/19 03:45:14;;;;;;;;;;;;;;;17.28;35.33;94628.13;2067568;28;1484;-61
2022/04/19 03:46:15;;;;;;;;;;;;;;;17.48;35.29;94626.34;2065967;28;1553;-61
2022/04/19 03:47:17;;;;;;;;;;;;;;;17.61;34.87;94631.69;2062021;28;1666;-61
2022/04/19 03:48:19;;;;;;;;;;;;;;;17.75;34.71;94631.72;2066076;28;1345;-62
2022/04/19 03:49:20;;;;;;;;;;;;;;;17.83;34.42;94628.84;2065268;28;1168;-63
2022/04/19 03:50:22;;;;;;;;;;;;;;;17.94;34.38;94635.41;2063279;28;1560;-62
2022/04/19 03:51:24;;;;;;;;;;;;;;;18.02;34.41;94630.72;2064238;28;1501;-62
2022/04/19 03:52:25;;;;;;;;;;;;;;;18.09;34.34;94633.34;2067321;28;1830;-63
2022/04/19 03:53:27;;;;;;;;;;;;;;;18.16;34.27;94636.03;2071067;28;1058;-62
2022/04/19 03:54:28;;;;;;;;;;;;;;;18.22;34.40;94637.84;2067804;28;1581;-65
2022/04/19 03:55:30;;;;;;;;;;;;;;;18.27;34.14;94630.91;2067168;28;1622;-62
2022/04/19 03:56:31;;;;;;;;;;;;;;;18.34;34.21;94649.50;2065601;28;1408;-60
2022/04/19 03:57:34;;;;;;;;;;;;;;;16.65;33.07;94645.00;2062080;28;1678;-66
2022/04/19 03:58:37;;;;;;;;;;;;;;;14.71;34.25;94651.31;2060643;28;1892;-61
2022/04/19 03:59:38;;;;;;;;;;;;;;;13.90;37.08;94647.66;2063329;28;2040;-60
2022/04/19 04:00:40;;;;;;;;;;;;;;;14.29;37.68;94647.47;2063598;28;1287;-70
2022/04/19 04:01:42;;;;;;;;;;;;;;;15.15;37.06;94645.94;2071386;28;1541;-65
2022/04/19 04:02:44;;;;;;;;;;;;;;;15.99;35.46;94642.72;2071775;28;1902;-63
2022/04/19 04:03:47;;;;;;;;;;;;;;;16.75;35.08;94647.28;2067682;28;1553;-65
2022/04/19 04:04:48;;;;;;;;;;;;;;;16.59;34.41;94647.59;2064467;28;1742;-62
2022/04/19 04:05:50;;;;;;;;;;;;;;;15.96;35.99;94639.63;2071270;28;1748;-62
2022/04/19 04:06:52;;;;;;;;;;;;;;;15.89;36.64;94641.41;2065750;28;1006;-62
2022/04/19 04:07:57;;;;;;;;;;;;;;;16.21;36.42;94645.31;2065927;28;1478;-61
2022/04/19 04:08:58;;;;;;;;;;;;;;;16.74;35.89;94656.25;2064282;28;1684;-66
2022/04/19 04:10:00;;;;;;;;;;;;;;;17.15;35.28;94650.94;2060871;28;1717;-64
2022/04/19 04:11:01;;;;;;;;;;;;;;;17.46;34.83;94649.63;2067172;28;1416;-67
2022/04/19 04:12:04;;;;;;;;;;;;;;;17.70;34.54;94656.22;2063120;28;1543;-64
2022/04/19 04:13:06;;;;;;;;;;;;;;;17.88;34.29;94655.66;2065092;28;1677;-64
2022/04/19 04:14:07;;;;;;;;;;;;;;;18.01;34.03;94657.47;2064471;28;1647;-64
2022/04/19 04:15:09;;;;;;;;;;;;;;;18.12;34.05;94658.72;2066329;28;1669;-64
2022/04/19 04:16:11;;;;;;;;;;;;;;;18.21;33.74;94652.16;2064930;28;1768;-66
2022/04/19 04:17:12;;;;;;;;;;;;;;;18.28;33.61;94658.31;2058373;28;1627;-64
2022/04/19 04:18:14;;;;;;;;;;;;;;;18.35;33.66;94659.09;2049566;29;1098;-66
2022/04/19 04:19:16;;;;;;;;;;;;;;;18.41;33.65;94655.66;2049859;28;1245;-63
2022/04/19 04:20:17;;;;;;;;;;;;;;;18.48;33.38;94669.75;2054302;28;1083;-65
2022/04/19 04:21:19;;;;;;;;;;;;;;;18.53;33.50;94667.28;2056266;28;1911;-65
2022/04/19 04:22:20;;;;;;;;;;;;;;;18.58;33.57;94663.16;2058201;28;1903;-65
2022/04/19 04:23:22;;;;;;;;;;;;;;;18.64;33.46;94654.38;2057603;28;1121;-66
2022/04/19 04:24:23;;;;;;;;;;;;;;;18.69;33.53;94659.91;2058538;28;1327;-65
2022/04/19 04:25:25;;;;;;;;;;;;;;;18.74;33.48;94663.56;2057309;28;1121;-66
2022/04/19 04:26:26;;;;;;;;;;;;;;;18.77;33.43;94659.69;2057175;28;1094;-65
2022/04/19 04:27:28;;;;;;;;;;;;;;;18.80;33.50;94656.59;2058494;28;1620;-64
2022/04/19 04:28:30;;;;;;;;;;;;;;;18.84;33.39;94660.50;2057812;28;1188;-65
2022/04/19 04:29:31;;;;;;;;;;;;;;;18.86;33.58;94661.09;2057917;28;1011;-65
2022/04/19 04:30:33;;;;;;;;;;;;;;;18.90;33.43;94664.16;2058520;28;1110;-66
2022/04/19 04:31:35;;;;;;;;;;;;;;;18.92;33.38;94660.28;2054371;28;982;-65
2022/04/19 04:32:36;;;;;;;;;;;;;;;18.96;33.66;94669.47;2053802;28;1224;-66
2022/04/19 04:33:38;;;;;;;;;;;;;;;18.97;33.43;94668.44;2057149;28;1126;-65
2022/04/19 04:34:39;;;;;;;;;;;;;;;18.99;33.45;94666.38;2057383;28;1116;-66
2022/04/19 04:35:41;;;;;;;;;;;;;;;19.04;33.36;94663.09;2057716;28;1113;-65
2022/04/19 04:36:43;;;;;;;;;;;;;;;19.04;33.57;94664.94;2057870;28;1074;-65
2022/04/19 04:37:44;;;;;;;;;;;;;;;19.06;33.43;94665.53;2057783;28;947;-66
2022/04/19 04:38:46;;;;;;;;;;;;;;;19.07;33.45;94670.66;2057560;28;1509;-66
2022/04/19 04:39:48;;;;;;;;;;;;;;;19.11;33.41;94663.06;2057670;28;989;-65
2022/04/19 04:40:49;;;;;;;;;;;;;;;19.10;33.40;94662.25;2057227;28;1070;-65
2022/04/19 04:41:51;;;;;;;;;;;;;;;19.13;33.37;94666.34;2056898;28;1128;-65
2022/04/19 04:42:52;;;;;;;;;;;;;;;19.15;33.41;94670.44;2053513;28;1915;-66
2022/04/19 04:43:54;;;;;;;;;;;;;;;19.17;33.34;94672.88;2052428;28;1238;-66
2022/04/19 04:44:55;;;;;;;;;;;;;;;19.18;33.33;94677.19;2049339;29;1133;-66
2022/04/19 04:49:57;;;;;;;;;;;;;;;19.25;33.41;94669.16;2058701;28;1413;-65
2022/04/19 04:50:59;;;;;;;;;;;;;;;19.26;33.47;94679.59;2058560;28;1172;-65
2022/04/19 04:52:00;;;;;;;;;;;;;;;19.27;33.46;94662.59;2058470;28;1109;-66
2022/04/19 04:53:02;;;;;;;;;;;;;;;19.29;33.45;94670.34;2058450;28;1177;-64
2022/04/19 04:54:04;;;;;;;;;;;;;;;19.27;33.42;94678.56;2054112;28;1457;-69
2022/04/19 04:55:07;;;;;;;;;;;;;;;19.33;33.54;94674.25;2052937;28;1204;-66
2022/04/19 04:56:08;;;;;;;;;;;;;;;19.34;33.37;94679.34;2057135;28;1328;-65
2022/04/19 04:57:10;;;;;;;;;;;;;;;19.36;33.56;94673.81;2050004;28;1135;-65
2022/04/19 04:58:12;;;;;;;;;;;;;;;19.37;33.56;94673.59;2042161;29;1091;-66
2022/04/19 04:59:13;;;;;;;;;;;;;;;19.39;33.34;94674.22;2049922;28;1126;-64
2022/04/19 05:00:15;;;;;;;;;;;;;;;19.39;33.55;94676.88;2057513;28;1169;-64
2022/04/19 05:01:17;;;;;;;;;;;;;;;19.40;33.41;94673.16;2057794;28;1168;-64
2022/04/19 05:02:18;;;;;;;;;;;;;;;19.40;33.47;94673.16;2058368;28;1078;-64
2022/04/19 05:03:20;;;;;;;;;;;;;;;19.43;33.55;94674.59;2058027;28;2039;-64
2022/04/19 05:04:22;;;;;;;;;;;;;;;19.45;33.37;94676.03;2058199;28;1098;-65
2022/04/19 05:05:23;;;;;;;;;;;;;;;19.45;33.51;94675.22;2054999;28;1188;-67
2022/04/19 05:06:25;;;;;;;;;;;;;;;19.49;33.42;94676.44;2053157;28;1164;-64
2022/04/19 05:07:26;;;;;;;;;;;;;;;19.50;33.37;94674.59;2058556;28;1077;-64
2022/04/19 05:08:28;;;;;;;;;;;;;;;19.51;33.29;94684.19;2058316;28;1245;-64
2022/04/19 05:09:30;;;;;;;;;;;;;;;19.52;33.43;94680.50;2058420;28;1052;-64
2022/04/19 05:10:31;;;;;;;;;;;;;;;19.52;33.43;94670.69;2057904;28;1437;-65
2022/04/19 05:11:33;;;;;;;;;;;;;;;19.55;33.43;94685.44;2058475;28;1042;-65
2022/04/19 05:12:35;;;;;;;;;;;;;;;19.56;33.49;94676.41;2058183;28;1553;-65
2022/04/19 05:13:39;;;;;;;;;;;;;;;19.57;33.43;94684.19;2058063;28;1224;-65
2022/04/19 05:14:41;;;;;;;;;;;;;;;19.58;33.51;94679.69;2058034;28;1089;-64
2022/04/19 05:15:42;;;;;;;;;;;;;;;19.60;33.43;94682.94;2058436;28;979;-65
2022/04/19 05:16:44;;;;;;;;;;;;;;;19.59;33.46;94676.00;2055159;28;1002;-68
2022/04/19 05:17:46;;;;;;;;;;;;;;;19.62;33.29;94684.38;2052627;28;1166;-65
2022/04/19 05:18:48;;;;;;;;;;;;;;;19.63;33.43;94679.84;2057446;28;1114;-66
2022/04/19 05:19:49;;;;;;;;;;;;;;;19.64;33.41;94684.97;2064773;28;1212;-65
2022/04/19 05:20:51;;;;;;;;;;;;;;;19.65;33.28;94680.47;2074253;28;1061;-64
2022/04/19 05:21:52;;;;;;;;;;;;;;;19.67;33.37;94686.41;2065982;28;1189;-64
2022/04/19 05:22:54;;;;;;;;;;;;;;;19.68;33.38;94680.03;2057813;28;1927;-65
2022/04/19 05:23:55;;;;;;;;;;;;;;;19.69;33.27;94687.03;2065937;28;1006;-64
2022/04/19 05:24:57;;;;;;;;;;;;;;;19.69;33.30;94681.69;2073126;28;1097;-65
2022/04/19 05:25:59;;;;;;;;;;;;;;;19.71;33.16;94679.59;2074334;28;1153;-65
2022/04/19 05:27:00;;;;;;;;;;;;;;;19.73;33.20;94690.88;2074203;28;1125;-65
2022/04/19 05:28:02;;;;;;;;;;;;;;;19.74;33.19;94689.84;2064118;28;1268;-66
2022/04/19 05:29:04;;;;;;;;;;;;;;;19.74;33.35;94681.84;2058917;28;1085;-65
2022/04/19 05:30:05;;;;;;;;;;;;;;;19.75;33.37;94685.31;2073521;28;1178;-65
2022/04/19 05:31:07;;;;;;;;;;;;;;;19.76;33.36;94687.78;2074176;28;1272;-65
2022/04/19 05:32:09;;;;;;;;;;;;;;;19.76;33.20;94687.78;2074303;28;1508;-66
2022/04/19 05:33:11;;;;;;;;;;;;;;;19.78;33.39;94690.25;2073865;28;1161;-65
2022/04/19 05:34:13;;;;;;;;;;;;;;;19.78;33.42;94683.06;2074102;28;1655;-66
2022/04/19 05:35:14;;;;;;;;;;;;;;;19.79;33.36;94698.00;2074157;28;1073;-65
2022/04/19 05:36:16;;;;;;;;;;;;;;;19.80;33.33;94685.50;2074419;28;989;-65
2022/04/19 05:37:17;;;;;;;;;;;;;;;19.79;33.35;94687.34;2074191;28;1197;-65
2022/04/19 05:38:19;;;;;;;;;;;;;;;19.82;33.28;94689.59;2065626;28;1113;-64
2022/04/19 05:39:21;;;;;;;;;;;;;;;19.84;33.18;94692.06;2064864;28;931;-65